createdAt,value
2018-11-27T00:00:19.144Z,34.59
2018-11-27T00:01:19.150Z,34.59
2018-11-27T00:02:19.049Z,34.59
2018-11-27T00:03:19.000Z,34.49
2018-11-27T00:04:18.952Z,34.59
2018-11-27T00:05:18.904Z,34.49
2018-11-27T00:06:18.859Z,34.59
2018-11-27T00:07:18.810Z,34.59
2018-11-27T00:08:18.762Z,34.49
2018-11-27T00:09:18.715Z,34.49
2018-11-27T00:10:18.668Z,34.59
2018-11-27T00:11:18.618Z,34.49
2018-11-27T00:12:18.571Z,34.68
2018-11-27T00:13:18.524Z,34.68
2018-11-27T00:14:18.476Z,34.68
2018-11-27T00:15:18.428Z,34.49
2018-11-27T00:16:18.381Z,34.78
2018-11-27T00:17:18.333Z,34.39
2018-11-27T00:18:18.288Z,34.78
2018-11-27T00:19:18.238Z,34.59
2018-11-27T00:20:18.189Z,34.49
2018-11-27T00:21:18.143Z,34.20
2018-11-27T00:22:18.095Z,34.39
2018-11-27T00:23:18.046Z,34.59
2018-11-27T00:24:18.000Z,34.30
2018-11-27T00:25:17.952Z,34.20
2018-11-27T00:26:17.903Z,34.30
2018-11-27T00:27:17.855Z,34.20
2018-11-27T00:28:17.808Z,34.20
2018-11-27T00:29:17.760Z,34.20
2018-11-27T00:30:17.713Z,34.20
2018-11-27T00:31:17.665Z,34.11
2018-11-27T00:32:17.623Z,34.30
2018-11-27T00:33:17.569Z,34.20
2018-11-27T00:34:17.528Z,34.01
2018-11-27T00:35:17.474Z,34.20
2018-11-27T00:36:17.426Z,34.39
2018-11-27T00:37:17.378Z,34.01
2018-11-27T00:38:17.331Z,34.20
2018-11-27T00:39:17.283Z,34.30
2018-11-27T00:40:17.552Z,34.30
2018-11-27T00:41:17.188Z,34.11
2018-11-27T00:42:17.140Z,34.20
2018-11-27T00:43:17.091Z,34.30
2018-11-27T00:44:17.045Z,34.39
2018-11-27T00:45:17.006Z,34.30
2018-11-27T00:46:16.948Z,34.20
2018-11-27T00:47:16.901Z,34.11
2018-11-27T00:48:16.855Z,33.91
2018-11-27T00:49:16.808Z,33.91
2018-11-27T00:50:16.758Z,33.84
2018-11-27T00:51:16.710Z,34.03
2018-11-27T00:52:16.663Z,34.01
2018-11-27T00:53:16.621Z,33.91
2018-11-27T00:54:16.568Z,33.91
2018-11-27T00:55:16.520Z,33.82
2018-11-27T00:56:16.471Z,34.01
2018-11-27T00:57:16.424Z,33.72
2018-11-27T00:58:16.377Z,33.93
2018-11-27T00:59:16.329Z,33.82
2018-11-27T01:00:16.281Z,33.82
2018-11-27T01:01:16.234Z,33.82
2018-11-27T01:02:16.186Z,33.82
2018-11-27T01:03:16.138Z,33.82
2018-11-27T01:04:16.091Z,33.62
2018-11-27T01:05:16.042Z,33.72
2018-11-27T01:06:15.996Z,33.82
2018-11-27T01:07:15.950Z,33.74
2018-11-27T01:08:15.905Z,33.82
2018-11-27T01:09:15.854Z,33.82
2018-11-27T01:10:15.805Z,33.72
2018-11-27T01:11:15.758Z,33.72
2018-11-27T01:12:15.710Z,33.82
2018-11-27T01:13:15.661Z,33.82
2018-11-27T01:14:15.614Z,33.64
2018-11-27T01:15:15.566Z,33.91
2018-11-27T01:16:15.519Z,33.62
2018-11-27T01:17:15.520Z,33.91
2018-11-27T01:18:15.423Z,33.62
2018-11-27T01:19:15.375Z,33.64
2018-11-27T01:20:15.328Z,33.72
2018-11-27T01:21:15.280Z,33.62
2018-11-27T01:22:15.233Z,34.01
2018-11-27T01:23:15.185Z,33.82
2018-11-27T01:24:15.137Z,34.03
2018-11-27T01:25:15.090Z,33.82
2018-11-27T01:26:15.042Z,33.82
2018-11-27T01:27:14.993Z,33.82
2018-11-27T01:28:14.946Z,33.84
2018-11-27T01:29:14.899Z,33.91
2018-11-27T01:30:14.855Z,33.64
2018-11-27T01:31:14.803Z,33.74
2018-11-27T01:32:14.756Z,33.74
2018-11-27T01:33:14.708Z,33.54
2018-11-27T01:34:14.661Z,33.74
2018-11-27T01:35:14.614Z,33.24
2018-11-27T01:36:14.564Z,33.36
2018-11-27T01:37:14.518Z,33.45
2018-11-27T01:38:14.470Z,33.36
2018-11-27T01:39:14.423Z,33.53
2018-11-27T01:40:14.377Z,33.54
2018-11-27T01:41:14.327Z,33.53
2018-11-27T01:42:14.278Z,33.34
2018-11-27T01:43:14.231Z,33.26
2018-11-27T01:44:14.183Z,33.36
2018-11-27T01:45:14.139Z,33.24
2018-11-27T01:46:14.089Z,33.26
2018-11-27T01:47:14.041Z,33.36
2018-11-27T01:48:13.992Z,33.26
2018-11-27T01:49:13.961Z,33.26
2018-11-27T01:50:13.948Z,33.36
2018-11-27T01:51:13.851Z,33.26
2018-11-27T01:52:13.803Z,33.53
2018-11-27T01:53:13.756Z,33.36
2018-11-27T01:54:13.713Z,33.34
2018-11-27T01:55:13.666Z,33.24
2018-11-27T01:56:13.613Z,33.45
2018-11-27T01:57:13.565Z,33.54
2018-11-27T01:58:13.517Z,33.26
2018-11-27T01:59:13.469Z,33.34
2018-11-27T02:00:13.422Z,33.54
2018-11-27T02:01:13.375Z,33.64
2018-11-27T02:02:13.327Z,33.64
2018-11-27T02:03:13.278Z,33.64
2018-11-27T02:04:13.274Z,33.64
2018-11-27T02:05:13.501Z,33.64
2018-11-27T02:06:13.139Z,33.16
2018-11-27T02:07:13.090Z,33.64
2018-11-27T02:08:13.041Z,33.24
2018-11-27T02:09:12.992Z,33.62
2018-11-27T02:10:12.945Z,33.64
2018-11-27T02:11:12.898Z,33.45
2018-11-27T02:12:12.850Z,33.07
2018-11-27T02:13:12.803Z,33.16
2018-11-27T02:14:12.754Z,33.16
2018-11-27T02:15:12.708Z,33.07
2018-11-27T02:16:12.659Z,33.16
2018-11-27T02:17:12.612Z,33.07
2018-11-27T02:18:12.566Z,33.07
2018-11-27T02:19:12.519Z,33.07
2018-11-27T02:20:12.470Z,32.97
2018-11-27T02:21:12.423Z,32.97
2018-11-27T02:22:12.376Z,33.07
2018-11-27T02:23:12.327Z,33.26
2018-11-27T02:24:12.281Z,33.16
2018-11-27T02:25:12.232Z,33.07
2018-11-27T02:26:12.191Z,33.07
2018-11-27T02:27:12.136Z,33.16
2018-11-27T02:28:12.088Z,32.78
2018-11-27T02:29:12.041Z,32.78
2018-11-27T02:30:11.994Z,33.16
2018-11-27T02:31:11.952Z,32.97
2018-11-27T02:32:11.899Z,32.87
2018-11-27T02:33:11.854Z,32.78
2018-11-27T02:34:11.805Z,32.87
2018-11-27T02:35:11.756Z,33.16
2018-11-27T02:36:11.711Z,32.87
2018-11-27T02:37:11.664Z,32.78
2018-11-27T02:38:11.614Z,32.59
2018-11-27T02:39:11.577Z,32.78
2018-11-27T02:40:11.516Z,32.87
2018-11-27T02:41:11.471Z,32.78
2018-11-27T02:42:11.424Z,32.87
2018-11-27T02:43:11.375Z,32.87
2018-11-27T02:44:11.327Z,32.87
2018-11-27T02:45:11.289Z,32.59
2018-11-27T02:46:11.333Z,32.87
2018-11-27T02:47:11.185Z,32.78
2018-11-27T02:48:11.138Z,32.59
2018-11-27T02:49:11.089Z,32.87
2018-11-27T02:50:11.050Z,32.78
2018-11-27T02:51:10.993Z,32.59
2018-11-27T02:52:10.948Z,32.59
2018-11-27T02:53:10.899Z,32.87
2018-11-27T02:54:10.852Z,32.68
2018-11-27T02:55:10.810Z,32.59
2018-11-27T02:56:10.757Z,32.59
2018-11-27T02:57:10.709Z,32.59
2018-11-27T02:58:10.662Z,32.59
2018-11-27T02:59:10.614Z,32.59
2018-11-27T03:00:10.566Z,32.97
2018-11-27T03:01:10.532Z,32.68
2018-11-27T03:02:10.478Z,32.59
2018-11-27T03:03:10.424Z,32.68
2018-11-27T03:04:10.376Z,32.67
2018-11-27T03:05:10.331Z,32.59
2018-11-27T03:06:10.280Z,32.68
2018-11-27T03:07:10.232Z,32.68
2018-11-27T03:08:10.185Z,32.59
2018-11-27T03:09:10.138Z,32.68
2018-11-27T03:10:10.090Z,32.67
2018-11-27T03:11:10.048Z,32.68
2018-11-27T03:12:09.995Z,32.97
2018-11-27T03:13:09.953Z,32.59
2018-11-27T03:14:09.904Z,32.76
2018-11-27T03:15:09.852Z,32.59
2018-11-27T03:16:09.803Z,32.78
2018-11-27T03:17:09.761Z,32.78
2018-11-27T03:18:09.713Z,32.78
2018-11-27T03:19:09.660Z,33.26
2018-11-27T03:20:09.614Z,32.86
2018-11-27T03:21:09.567Z,32.68
2018-11-27T03:22:09.519Z,33.16
2018-11-27T03:23:09.469Z,33.16
2018-11-27T03:24:09.423Z,33.05
2018-11-27T03:25:09.375Z,32.78
2018-11-27T03:26:09.332Z,32.68
2018-11-27T03:27:09.279Z,32.76
2018-11-27T03:28:09.233Z,32.76
2018-11-27T03:29:09.185Z,32.87
2018-11-27T03:30:09.139Z,32.95
2018-11-27T03:31:09.093Z,32.59
2018-11-27T03:32:09.045Z,32.68
2018-11-27T03:33:09.314Z,32.87
2018-11-27T03:34:09.264Z,32.95
2018-11-27T03:35:08.898Z,32.57
2018-11-27T03:36:08.853Z,32.76
2018-11-27T03:37:08.805Z,32.95
2018-11-27T03:38:08.756Z,32.59
2018-11-27T03:39:08.708Z,32.68
2018-11-27T03:40:08.661Z,32.49
2018-11-27T03:41:08.615Z,32.49
2018-11-27T03:42:08.566Z,32.57
2018-11-27T03:43:08.516Z,32.59
2018-11-27T03:44:08.471Z,32.49
2018-11-27T03:45:08.426Z,32.49
2018-11-27T03:46:08.377Z,32.49
2018-11-27T03:47:08.328Z,32.59
2018-11-27T03:48:08.280Z,32.59
2018-11-27T03:49:08.231Z,32.78
2018-11-27T03:50:08.185Z,32.78
2018-11-27T03:51:08.143Z,32.78
2018-11-27T03:52:08.089Z,32.76
2018-11-27T03:53:08.042Z,32.78
2018-11-27T03:54:07.994Z,32.68
2018-11-27T03:55:07.945Z,32.68
2018-11-27T03:56:07.899Z,32.68
2018-11-27T03:57:07.852Z,32.68
2018-11-27T03:58:07.804Z,32.68
2018-11-27T03:59:07.755Z,32.68
2018-11-27T04:00:07.708Z,32.67
2018-11-27T04:01:07.662Z,32.67
2018-11-27T04:02:07.613Z,32.76
2018-11-27T04:03:07.565Z,32.68
2018-11-27T04:04:10.011Z,32.68
2018-11-27T04:05:07.469Z,32.68
2018-11-27T04:06:07.423Z,32.68
2018-11-27T04:07:07.376Z,32.78
2018-11-27T04:08:07.333Z,32.68
2018-11-27T04:09:07.282Z,32.68
2018-11-27T04:10:07.233Z,33.05
2018-11-27T04:11:07.183Z,32.68
2018-11-27T04:12:07.137Z,32.57
2018-11-27T04:13:07.091Z,32.59
2018-11-27T04:14:07.045Z,32.78
2018-11-27T04:15:07.044Z,32.78
2018-11-27T04:16:06.947Z,32.97
2018-11-27T04:17:06.898Z,32.86
2018-11-27T04:18:06.851Z,32.87
2018-11-27T04:19:06.821Z,32.97
2018-11-27T04:20:06.755Z,32.76
2018-11-27T04:21:06.708Z,32.49
2018-11-27T04:22:06.662Z,32.49
2018-11-27T04:23:06.613Z,32.49
2018-11-27T04:24:06.566Z,32.59
2018-11-27T04:25:06.519Z,32.49
2018-11-27T04:26:06.471Z,32.49
2018-11-27T04:27:06.421Z,32.57
2018-11-27T04:28:06.374Z,32.57
2018-11-27T04:29:06.328Z,32.30
2018-11-27T04:30:06.280Z,32.59
2018-11-27T04:31:06.232Z,32.59
2018-11-27T04:32:06.185Z,32.78
2018-11-27T04:33:06.137Z,32.78
2018-11-27T04:34:06.089Z,32.78
2018-11-27T04:35:06.042Z,32.68
2018-11-27T04:36:05.997Z,32.78
2018-11-27T04:37:05.947Z,32.68
2018-11-27T04:38:05.900Z,32.39
2018-11-27T04:39:05.852Z,32.78
2018-11-27T04:40:05.803Z,32.67
2018-11-27T04:41:05.756Z,32.30
2018-11-27T04:42:05.711Z,32.68
2018-11-27T04:43:05.659Z,32.39
2018-11-27T04:44:05.612Z,32.30
2018-11-27T04:45:05.615Z,32.30
2018-11-27T04:46:05.520Z,32.20
2018-11-27T04:47:05.469Z,32.78
2018-11-27T04:48:05.421Z,32.39
2018-11-27T04:49:05.376Z,32.67
2018-11-27T04:50:05.326Z,32.57
2018-11-27T04:51:05.281Z,32.28
2018-11-27T04:52:05.240Z,32.28
2018-11-27T04:53:05.183Z,32.09
2018-11-27T04:54:05.138Z,32.49
2018-11-27T04:55:05.087Z,32.38
2018-11-27T04:56:05.042Z,32.30
2018-11-27T04:57:04.992Z,32.39
2018-11-27T04:58:04.946Z,32.18
2018-11-27T04:59:04.898Z,32.18
2018-11-27T05:00:04.850Z,32.30
2018-11-27T05:01:04.803Z,32.20
2018-11-27T05:02:04.757Z,32.30
2018-11-27T05:03:04.707Z,32.18
2018-11-27T05:04:04.664Z,32.30
2018-11-27T05:05:04.612Z,32.20
2018-11-27T05:06:04.572Z,32.30
2018-11-27T05:07:04.549Z,32.30
2018-11-27T05:08:04.519Z,32.20
2018-11-27T05:09:04.425Z,32.30
2018-11-27T05:10:04.374Z,32.28
2018-11-27T05:11:04.325Z,32.28
2018-11-27T05:12:04.278Z,32.30
2018-11-27T05:13:04.230Z,32.20
2018-11-27T05:14:04.183Z,32.30
2018-11-27T05:15:04.135Z,32.01
2018-11-27T05:16:04.088Z,32.28
2018-11-27T05:17:04.040Z,32.20
2018-11-27T05:18:03.994Z,32.20
2018-11-27T05:19:03.944Z,32.10
2018-11-27T05:20:03.897Z,32.10
2018-11-27T05:21:03.848Z,32.01
2018-11-27T05:22:03.802Z,31.92
2018-11-27T05:23:03.755Z,32.01
2018-11-27T05:24:03.706Z,31.82
2018-11-27T05:25:03.658Z,31.92
2018-11-27T05:26:03.611Z,32.01
2018-11-27T05:27:03.562Z,32.01
2018-11-27T05:28:03.515Z,32.01
2018-11-27T05:29:03.468Z,32.01
2018-11-27T05:30:03.421Z,32.01
2018-11-27T05:31:03.374Z,32.01
2018-11-27T05:32:03.325Z,31.99
2018-11-27T05:33:03.276Z,32.01
2018-11-27T05:34:03.228Z,32.01
2018-11-27T05:35:03.185Z,31.92
2018-11-27T05:36:03.200Z,32.09
2018-11-27T05:37:03.086Z,32.01
2018-11-27T05:38:03.040Z,32.20
2018-11-27T05:39:02.990Z,32.10
2018-11-27T05:40:02.948Z,32.10
2018-11-27T05:41:02.896Z,32.01
2018-11-27T05:42:02.849Z,32.09
2018-11-27T05:43:02.800Z,32.09
2018-11-27T05:44:02.753Z,31.92
2018-11-27T05:45:02.705Z,31.92
2018-11-27T05:46:02.658Z,31.99
2018-11-27T05:47:02.610Z,31.99
2018-11-27T05:48:02.561Z,32.10
2018-11-27T05:49:02.514Z,32.01
2018-11-27T05:50:02.466Z,32.01
2018-11-27T05:51:02.417Z,31.92
2018-11-27T05:52:02.372Z,31.90
2018-11-27T05:53:02.326Z,31.92
2018-11-27T05:54:02.276Z,32.09
2018-11-27T05:55:02.227Z,32.01
2018-11-27T05:56:02.180Z,31.90
2018-11-27T05:57:02.132Z,31.90
2018-11-27T05:58:02.086Z,31.92
2018-11-27T05:59:02.037Z,32.10
2018-11-27T06:00:01.989Z,31.92
2018-11-27T06:01:01.943Z,32.10
2018-11-27T06:02:01.895Z,32.10
2018-11-27T06:03:01.846Z,32.09
2018-11-27T06:04:01.806Z,32.10
2018-11-27T06:05:01.760Z,32.10
2018-11-27T06:06:01.705Z,31.82
2018-11-27T06:07:01.656Z,31.80
2018-11-27T06:08:01.608Z,32.10
2018-11-27T06:09:01.561Z,31.82
2018-11-27T06:10:01.514Z,31.80
2018-11-27T06:11:01.466Z,32.10
2018-11-27T06:12:01.416Z,31.72
2018-11-27T06:13:01.376Z,31.82
2018-11-27T06:14:01.324Z,31.82
2018-11-27T06:15:01.287Z,31.82
2018-11-27T06:16:01.227Z,31.72
2018-11-27T06:17:01.179Z,31.80
2018-11-27T06:18:01.136Z,31.82
2018-11-27T06:19:01.089Z,31.90
2018-11-27T06:20:01.035Z,31.92
2018-11-27T06:21:00.989Z,31.92
2018-11-27T06:22:00.941Z,32.01
2018-11-27T06:23:00.891Z,32.01
2018-11-27T06:24:00.845Z,31.92
2018-11-27T06:25:00.798Z,31.72
2018-11-27T06:26:00.750Z,31.82
2018-11-27T06:27:00.701Z,31.82
2018-11-27T06:28:00.654Z,31.82
2018-11-27T06:29:00.606Z,31.92
2018-11-27T06:30:00.560Z,31.92
2018-11-27T06:31:00.512Z,31.62
2018-11-27T06:32:00.464Z,31.62
2018-11-27T06:33:00.417Z,31.62
2018-11-27T06:34:00.369Z,31.62
2018-11-27T06:35:00.321Z,31.53
2018-11-27T06:36:00.274Z,31.62
2018-11-27T06:37:00.226Z,31.53
2018-11-27T06:38:00.179Z,31.72
2018-11-27T06:39:00.130Z,31.72
2018-11-27T06:40:00.528Z,31.72
2018-11-27T06:41:00.035Z,31.72
2018-11-27T06:41:59.988Z,31.82
2018-11-27T06:42:59.939Z,31.53
2018-11-27T06:43:59.892Z,31.72
2018-11-27T06:44:59.845Z,31.72
2018-11-27T06:45:59.797Z,31.72
2018-11-27T06:46:59.749Z,31.62
2018-11-27T06:47:59.702Z,31.51
2018-11-27T06:48:59.654Z,31.61
2018-11-27T06:49:59.606Z,31.62
2018-11-27T06:50:59.558Z,31.62
2018-11-27T06:51:59.511Z,31.61
2018-11-27T06:52:59.462Z,31.82
2018-11-27T06:53:59.416Z,31.51
2018-11-27T06:54:59.367Z,31.90
2018-11-27T06:55:59.322Z,31.70
2018-11-27T06:56:59.272Z,31.90
2018-11-27T06:57:59.228Z,31.80
2018-11-27T06:58:59.176Z,31.90
2018-11-27T06:59:59.128Z,31.80
2018-11-27T07:00:59.081Z,31.90
2018-11-27T07:01:59.355Z,31.70
2018-11-27T07:02:58.986Z,31.90
2018-11-27T07:03:58.938Z,31.70
2018-11-27T07:04:58.891Z,31.80
2018-11-27T07:05:58.842Z,31.90
2018-11-27T07:06:58.795Z,31.90
2018-11-27T07:07:58.747Z,31.80
2018-11-27T07:08:58.700Z,31.80
2018-11-27T07:09:58.653Z,31.80
2018-11-27T07:10:58.604Z,31.99
2018-11-27T07:11:58.557Z,31.90
2018-11-27T07:12:58.509Z,31.61
2018-11-27T07:13:58.462Z,31.80
2018-11-27T07:14:58.413Z,31.99
2018-11-27T07:15:58.379Z,31.99
2018-11-27T07:16:58.319Z,31.80
2018-11-27T07:17:58.271Z,31.51
2018-11-27T07:18:58.222Z,31.80
2018-11-27T07:19:58.175Z,31.90
2018-11-27T07:20:58.127Z,31.80
2018-11-27T07:21:58.079Z,31.51
2018-11-27T07:22:58.034Z,31.70
2018-11-27T07:23:57.984Z,31.61
2018-11-27T07:24:57.938Z,31.61
2018-11-27T07:25:57.891Z,31.70
2018-11-27T07:26:57.848Z,31.99
2018-11-27T07:27:57.793Z,31.90
2018-11-27T07:28:57.751Z,31.90
2018-11-27T07:29:57.698Z,31.70
2018-11-27T07:30:57.650Z,31.90
2018-11-27T07:31:57.602Z,31.90
2018-11-27T07:32:57.555Z,31.80
2018-11-27T07:33:57.508Z,31.80
2018-11-27T07:34:57.459Z,31.80
2018-11-27T07:35:57.411Z,31.99
2018-11-27T07:36:57.364Z,31.90
2018-11-27T07:37:57.315Z,31.99
2018-11-27T07:38:57.267Z,31.80
2018-11-27T07:39:57.219Z,31.80
2018-11-27T07:40:57.172Z,31.51
2018-11-27T07:41:57.125Z,31.51
2018-11-27T07:42:57.076Z,31.70
2018-11-27T07:43:57.029Z,31.70
2018-11-27T07:44:56.981Z,31.41
2018-11-27T07:45:56.934Z,31.61
2018-11-27T07:46:56.884Z,31.41
2018-11-27T07:47:56.836Z,31.41
2018-11-27T07:48:56.793Z,31.51
2018-11-27T07:49:56.743Z,31.41
2018-11-27T07:50:56.698Z,31.41
2018-11-27T07:51:56.646Z,31.32
2018-11-27T07:52:56.599Z,31.32
2018-11-27T07:53:56.552Z,31.51
2018-11-27T07:54:56.504Z,31.23
2018-11-27T07:55:56.455Z,31.23
2018-11-27T07:56:56.410Z,31.23
2018-11-27T07:57:56.411Z,31.41
2018-11-27T07:58:56.312Z,31.23
2018-11-27T07:59:56.264Z,31.23
2018-11-27T08:00:56.217Z,31.32
2018-11-27T08:01:56.170Z,31.23
2018-11-27T08:02:56.172Z,31.32
2018-11-27T08:03:56.073Z,31.41
2018-11-27T08:04:56.026Z,31.41
2018-11-27T08:05:55.982Z,31.23
2018-11-27T08:06:55.931Z,31.32
2018-11-27T08:07:55.882Z,31.23
2018-11-27T08:08:55.836Z,31.41
2018-11-27T08:09:55.788Z,31.41
2018-11-27T08:10:55.740Z,31.41
2018-11-27T08:11:55.692Z,31.41
2018-11-27T08:12:55.644Z,31.23
2018-11-27T08:13:55.598Z,31.13
2018-11-27T08:14:55.548Z,31.32
2018-11-27T08:15:55.505Z,31.13
2018-11-27T08:16:55.453Z,31.13
2018-11-27T08:17:55.406Z,31.13
2018-11-27T08:18:55.360Z,30.93
2018-11-27T08:19:55.311Z,31.32
2018-11-27T08:20:55.263Z,31.32
2018-11-27T08:21:55.216Z,31.32
2018-11-27T08:22:55.318Z,31.13
2018-11-27T08:23:55.120Z,31.32
2018-11-27T08:24:55.075Z,31.32
2018-11-27T08:25:55.025Z,31.13
2018-11-27T08:26:54.977Z,30.84
2018-11-27T08:27:54.933Z,30.74
2018-11-27T08:28:54.882Z,30.74
2018-11-27T08:29:54.835Z,30.74
2018-11-27T08:30:54.787Z,30.84
2018-11-27T09:07:44.951Z,31.32
2018-11-27T09:08:44.900Z,31.41
2018-11-27T09:09:44.853Z,31.23
2018-11-27T09:10:44.804Z,31.23
2018-11-27T09:11:44.758Z,31.13
2018-11-27T09:12:44.759Z,31.41
2018-11-27T09:13:44.660Z,31.13
2018-11-27T09:14:44.613Z,31.13
2018-11-27T09:15:44.565Z,31.13
2018-11-27T09:16:44.517Z,30.84
2018-11-27T09:17:44.470Z,31.03
2018-11-27T09:18:44.421Z,30.84
2018-11-27T09:19:44.375Z,30.93
2018-11-27T09:20:44.326Z,30.84
2018-11-27T09:21:44.279Z,30.74
2018-11-27T09:22:44.231Z,30.74
2018-11-27T09:23:44.183Z,30.84
2018-11-27T09:24:44.135Z,30.74
2018-11-27T09:25:44.143Z,30.84
2018-11-27T09:26:44.045Z,30.74
2018-11-27T09:27:44.042Z,30.74
2018-11-27T09:28:43.944Z,31.03
2018-11-27T09:29:43.946Z,30.84
2018-11-27T09:30:43.848Z,30.93
2018-11-27T09:31:43.801Z,30.74
2018-11-27T09:32:43.753Z,30.84
2018-11-27T09:33:43.712Z,30.93
2018-11-27T09:34:43.658Z,31.23
2018-11-27T09:35:43.611Z,30.84
2018-11-27T09:36:43.560Z,30.74
2018-11-27T09:37:43.521Z,30.84
2018-11-27T09:38:43.466Z,31.03
2018-11-27T09:39:43.419Z,31.13
2018-11-27T09:40:43.371Z,30.84
2018-11-27T09:41:43.322Z,31.13
2018-11-27T09:42:43.277Z,30.84
2018-11-27T09:43:43.229Z,31.32
2018-11-27T09:44:43.181Z,30.93
2018-11-27T09:45:43.138Z,31.32
2018-11-27T09:46:43.085Z,31.13
2018-11-27T09:47:43.038Z,31.13
2018-11-27T09:48:42.989Z,31.23
2018-11-27T09:49:42.942Z,31.23
2018-11-27T09:50:42.894Z,31.23
2018-11-27T09:51:42.847Z,31.13
2018-11-27T09:52:42.798Z,31.32
2018-11-27T09:53:42.751Z,31.13
2018-11-27T09:54:42.702Z,31.32
2018-11-27T09:55:42.655Z,30.84
2018-11-27T09:56:42.607Z,31.03
2018-11-27T09:57:42.560Z,30.84
2018-11-27T09:58:42.512Z,30.93
2018-11-27T09:59:42.464Z,31.23
2018-11-27T10:00:42.416Z,31.03
2018-11-27T10:01:42.368Z,30.84
2018-11-27T10:02:42.321Z,30.93
2018-11-27T10:03:42.273Z,31.41
2018-11-27T10:04:42.224Z,31.13
2018-11-27T10:05:42.177Z,31.41
2018-11-27T10:06:42.133Z,31.32
2018-11-27T10:07:42.082Z,31.41
2018-11-27T10:08:42.035Z,31.13
2018-11-27T10:09:41.989Z,31.41
2018-11-27T10:10:41.941Z,31.49
2018-11-27T10:11:42.644Z,31.32
2018-11-27T10:12:41.844Z,31.23
2018-11-27T10:13:41.798Z,31.23
2018-11-27T10:14:41.747Z,31.32
2018-11-27T10:15:41.704Z,31.41
2018-11-27T10:16:41.652Z,31.41
2018-11-27T10:17:41.604Z,31.41
2018-11-27T10:18:41.560Z,31.41
2018-11-27T10:19:41.510Z,31.32
2018-11-27T10:20:41.466Z,31.41
2018-11-27T10:21:41.415Z,31.41
2018-11-27T10:22:41.519Z,31.70
2018-11-27T10:23:41.319Z,31.70
2018-11-27T10:24:41.270Z,31.61
2018-11-27T10:25:41.223Z,31.51
2018-11-27T10:26:41.175Z,31.51
2018-11-27T10:27:41.129Z,31.61
2018-11-27T10:28:41.080Z,31.90
2018-11-27T10:29:41.031Z,31.61
2018-11-27T10:30:40.983Z,31.99
2018-11-27T10:31:40.935Z,31.90
2018-11-27T10:32:40.907Z,31.80
2018-11-27T10:33:40.841Z,31.90
2018-11-27T10:34:40.793Z,31.90
2018-11-27T10:35:40.748Z,31.61
2018-11-27T10:36:40.697Z,31.61
2018-11-27T10:37:40.650Z,31.80
2018-11-27T10:38:40.601Z,31.99
2018-11-27T10:39:40.555Z,32.09
2018-11-27T10:40:40.506Z,32.09
2018-11-27T10:41:40.459Z,31.99
2018-11-27T10:42:40.444Z,31.90
2018-11-27T10:43:40.363Z,31.99
2018-11-27T10:44:40.318Z,31.99
2018-11-27T10:45:40.269Z,31.99
2018-11-27T10:46:40.220Z,31.80
2018-11-27T10:47:40.172Z,31.99
2018-11-27T10:48:40.274Z,32.18
2018-11-27T10:49:40.076Z,32.18
2018-11-27T10:50:40.029Z,32.18
2018-11-27T10:51:40.092Z,32.28
2018-11-27T10:52:39.933Z,32.28
2018-11-27T10:53:39.885Z,32.47
2018-11-27T10:54:39.837Z,32.38
2018-11-27T10:55:39.800Z,32.38
2018-11-27T10:56:39.741Z,32.67
2018-11-27T10:57:39.695Z,32.57
2018-11-27T10:58:39.650Z,32.47
2018-11-27T10:59:39.601Z,32.86
2018-11-27T11:00:39.551Z,32.86
2018-11-27T11:01:39.503Z,32.67
2018-11-27T11:02:39.456Z,32.76
2018-11-27T11:03:39.407Z,32.57
2018-11-27T11:04:39.360Z,32.86
2018-11-27T11:05:39.312Z,32.57
2018-11-27T11:06:39.276Z,32.57
2018-11-27T11:07:39.216Z,32.38
2018-11-27T11:08:39.168Z,32.57
2018-11-27T11:09:39.170Z,32.76
2018-11-27T11:10:39.074Z,33.15
2018-11-27T11:11:39.032Z,33.15
2018-11-27T11:12:39.082Z,33.34
2018-11-27T11:13:38.930Z,33.05
2018-11-27T11:14:38.882Z,32.86
2018-11-27T11:15:38.838Z,32.84
2018-11-27T11:16:38.786Z,33.05
2018-11-27T11:17:38.739Z,33.15
2018-11-27T11:18:38.691Z,33.53
2018-11-27T11:19:38.643Z,33.24
2018-11-27T11:20:38.594Z,33.15
2018-11-27T11:21:38.548Z,33.34
2018-11-27T11:22:38.500Z,33.24
2018-11-27T11:23:38.453Z,33.24
2018-11-27T11:24:38.403Z,33.34
2018-11-27T11:25:38.356Z,33.34
2018-11-27T11:26:38.309Z,33.51
2018-11-27T11:27:38.263Z,33.32
2018-11-27T11:28:38.211Z,33.32
2018-11-27T11:29:38.165Z,33.72
2018-11-27T11:30:38.126Z,33.34
2018-11-27T11:31:38.070Z,33.72
2018-11-27T11:32:38.022Z,33.91
2018-11-27T11:33:38.026Z,34.01
2018-11-27T11:34:37.925Z,33.80
2018-11-27T11:35:37.878Z,34.11
2018-11-27T11:36:37.830Z,33.62
2018-11-27T11:37:37.785Z,33.62
2018-11-27T11:38:37.735Z,33.61
2018-11-27T11:39:37.687Z,33.80
2018-11-27T11:40:37.639Z,33.80
2018-11-27T11:41:37.642Z,33.82
2018-11-27T11:42:37.543Z,33.90
2018-11-27T11:43:37.496Z,34.09
2018-11-27T11:44:37.448Z,34.01
2018-11-27T11:45:37.399Z,33.91
2018-11-27T11:46:37.351Z,34.19
2018-11-27T11:47:37.305Z,34.28
2018-11-27T11:48:37.255Z,33.99
2018-11-27T11:49:37.223Z,34.30
2018-11-27T11:50:37.160Z,34.28
2018-11-27T11:51:37.112Z,34.11
2018-11-27T11:52:37.065Z,33.99
2018-11-27T11:53:37.016Z,34.19
2018-11-27T11:54:36.969Z,34.20
2018-11-27T11:55:36.921Z,34.28
2018-11-27T11:56:36.873Z,34.39
2018-11-27T11:57:36.825Z,34.30
2018-11-27T11:58:36.777Z,34.09
2018-11-27T11:59:36.732Z,34.47
2018-11-27T12:00:36.682Z,34.30
2018-11-27T12:01:36.634Z,34.39
2018-11-27T12:02:36.598Z,34.59
2018-11-27T12:03:36.539Z,34.68
2018-11-27T12:04:36.491Z,34.59
2018-11-27T12:05:36.446Z,34.49
2018-11-27T12:06:36.394Z,34.49
2018-11-27T12:07:36.347Z,34.68
2018-11-27T12:08:36.298Z,34.59
2018-11-27T12:09:36.251Z,34.67
2018-11-27T12:10:36.204Z,34.67
2018-11-27T12:11:36.156Z,34.47
2018-11-27T12:12:36.106Z,34.49
2018-11-27T12:13:36.059Z,34.68
2018-11-27T12:14:36.012Z,34.57
2018-11-27T12:15:35.966Z,34.57
2018-11-27T12:16:35.917Z,34.86
2018-11-27T12:17:35.969Z,34.67
2018-11-27T12:18:35.819Z,34.76
2018-11-27T12:19:35.773Z,34.78
2018-11-27T12:20:35.739Z,34.67
2018-11-27T12:21:35.676Z,34.76
2018-11-27T12:22:35.634Z,34.95
2018-11-27T12:23:35.582Z,34.68
2018-11-27T12:24:35.532Z,34.86
2018-11-27T12:25:35.536Z,35.14
2018-11-27T12:26:35.438Z,35.05
2018-11-27T12:27:35.389Z,35.05
2018-11-27T12:28:35.341Z,35.05
2018-11-27T12:29:35.294Z,35.06
2018-11-27T12:30:35.245Z,34.95
2018-11-27T12:31:35.199Z,35.05
2018-11-27T12:32:35.153Z,34.95
2018-11-27T12:33:35.108Z,35.05
2018-11-27T12:34:35.055Z,35.14
2018-11-27T12:35:35.007Z,34.86
2018-11-27T12:36:34.959Z,34.97
2018-11-27T12:37:34.911Z,34.97
2018-11-27T12:38:34.862Z,34.88
2018-11-27T12:39:34.815Z,34.86
2018-11-27T12:40:34.774Z,34.95
2018-11-27T12:41:34.718Z,35.06
2018-11-27T12:42:34.670Z,34.95
2018-11-27T12:43:34.623Z,34.95
2018-11-27T12:44:34.574Z,35.05
2018-11-27T12:45:34.535Z,35.05
2018-11-27T12:46:34.478Z,35.05
2018-11-27T12:47:34.431Z,34.95
2018-11-27T12:48:34.382Z,35.05
2018-11-27T12:49:34.335Z,34.95
2018-11-27T12:50:34.288Z,34.86
2018-11-27T12:51:34.240Z,34.97
2018-11-27T12:52:34.190Z,34.95
2018-11-27T12:53:34.143Z,34.95
2018-11-27T12:54:34.096Z,34.95
2018-11-27T12:55:34.048Z,34.95
2018-11-27T12:56:34.000Z,34.95
2018-11-27T12:57:33.977Z,34.95
2018-11-27T12:58:33.903Z,34.86
2018-11-27T12:59:33.959Z,35.05
2018-11-27T13:00:33.810Z,34.97
2018-11-27T13:01:33.760Z,34.86
2018-11-27T13:02:33.712Z,34.95
2018-11-27T13:03:33.664Z,34.86
2018-11-27T13:04:33.616Z,35.05
2018-11-27T13:05:33.568Z,34.95
2018-11-27T13:06:33.525Z,34.95
2018-11-27T13:07:33.474Z,35.14
2018-11-27T13:08:33.424Z,34.95
2018-11-27T13:09:33.378Z,35.05
2018-11-27T13:10:33.330Z,35.05
2018-11-27T13:11:33.281Z,34.95
2018-11-27T13:12:33.234Z,34.95
2018-11-27T13:13:33.185Z,35.05
2018-11-27T13:14:33.137Z,34.95
2018-11-27T13:15:33.091Z,34.88
2018-11-27T13:16:33.041Z,35.05
2018-11-27T13:17:32.995Z,34.97
2018-11-27T13:18:32.948Z,34.97
2018-11-27T13:19:32.949Z,35.05
2018-11-27T13:20:32.850Z,35.05
2018-11-27T13:21:32.802Z,35.06
2018-11-27T13:22:32.754Z,35.05
2018-11-27T13:23:32.708Z,35.06
2018-11-27T13:24:32.659Z,35.05
2018-11-27T13:25:32.611Z,35.14
2018-11-27T13:26:32.566Z,34.86
2018-11-27T13:27:32.517Z,35.16